Time;durP1;ratioP1;P1;durP2;ratioP2;P2;SDS_P1;SDS_P2;PMS_P1;PMS_P2;Temp;Humidity;BMP_temperature;BMP_pressure;BME280_temperature;BME280_humidity;BME280_pressure;Samples;Min_cycle;Max_cycle;Signal;HPM_P1;HPM_P2
2022/09/21 00:02:58;;;;;;;9.45;4.00;;;;;;;4.51;94.44;102441.81;10201560;29;20058;-81
2022/09/21 00:08:04;;;;;;;10.30;4.10;;;;;;;4.47;94.48;102438.91;10204336;29;20126;-81
2022/09/21 00:13:07;;;;;;;9.05;3.65;;;;;;;4.45;94.42;102448.31;10203390;29;20135;-81
2022/09/21 00:18:09;;;;;;;7.18;3.50;;;;;;;4.38;94.60;102447.88;10202520;29;20071;-81
2022/09/21 00:23:11;;;;;;;7.07;3.03;;;;;;;4.35;94.52;102449.34;10213771;29;20058;-81
2022/09/21 00:28:14;;;;;;;12.13;3.15;;;;;;;4.29;94.36;102443.75;10217207;29;20162;-80
2022/09/21 00:33:15;;;;;;;7.50;2.90;;;;;;;4.29;94.69;102446.34;10221101;28;20149;-81
2022/09/21 00:38:17;;;;;;;8.80;3.00;;;;;;;4.25;94.62;102442.63;10204463;29;20131;-81
2022/09/21 00:43:19;;;;;;;6.28;2.67;;;;;;;4.20;94.33;102444.00;10217015;29;20115;-81
2022/09/21 00:48:28;;;;;;;9.93;2.90;;;;;;;4.14;94.75;102443.56;10219586;29;20052;-81
2022/09/21 00:53:31;;;;;;;8.95;3.88;;;;;;;4.12;94.60;102446.06;10225825;28;20051;-81
2022/09/21 00:58:39;;;;;;;9.80;4.55;;;;;;;4.09;94.81;102447.56;10223415;29;20059;-81
2022/09/21 01:03:44;;;;;;;14.70;5.10;;;;;;;4.05;94.61;102449.00;10221949;28;20044;-81
2022/09/21 01:08:53;;;;;;;9.50;4.90;;;;;;;4.00;94.69;102456.47;10219298;29;20404;-81
2022/09/21 01:13:58;;;;;;;9.98;5.20;;;;;;;3.93;94.58;102456.81;10219073;28;20047;-81
2022/09/21 01:19:25;;;;;;;19.00;5.72;;;;;;;3.92;94.74;102452.44;10226493;28;20109;-80
2022/09/21 01:25:04;;;;;;;11.75;4.78;;;;;;;3.87;94.71;102458.97;10220771;29;20111;-80
2022/09/21 01:30:13;;;;;;;11.95;4.45;;;;;;;3.83;94.62;102467.34;10219150;29;20058;-81
2022/09/21 01:35:26;;;;;;;8.98;3.78;;;;;;;3.82;94.54;102468.13;10198297;28;20065;-81
2022/09/21 01:40:35;;;;;;;6.50;3.20;;;;;;;3.77;94.77;102461.69;10219685;29;20392;-80
2022/09/21 01:45:42;;;;;;;7.05;3.55;;;;;;;3.74;94.50;102452.03;10223886;28;20051;-80
2022/09/21 01:50:50;;;;;;;11.85;3.47;;;;;;;3.69;94.69;102464.66;10225650;29;20036;-81
2022/09/21 01:55:56;;;;;;;6.00;2.53;;;;;;;3.62;94.68;102452.06;10215231;29;20047;-80
2022/09/21 02:00:59;;;;;;;7.55;2.58;;;;;;;3.57;94.82;102463.75;10229420;29;20083;-80
2022/09/21 02:06:01;;;;;;;6.20;2.70;;;;;;;3.57;94.62;102466.34;10223187;29;20526;-80
2022/09/21 02:11:05;;;;;;;9.65;2.75;;;;;;;3.55;94.77;102478.31;10221314;29;20062;-80
2022/09/21 02:16:06;;;;;;;13.00;3.30;;;;;;;3.50;94.85;102465.00;10222237;28;20050;-80
2022/09/21 02:21:21;;;;;;;7.97;2.60;;;;;;;3.47;94.96;102457.03;10222931;29;20058;-80
2022/09/21 02:26:31;;;;;;;7.63;2.58;;;;;;;3.46;94.88;102462.09;10217728;28;20048;-81
2022/09/21 02:31:50;;;;;;;9.25;3.08;;;;;;;3.39;94.74;102465.03;10217177;29;20227;-80
2022/09/21 02:37:05;;;;;;;7.57;2.42;;;;;;;3.38;94.75;102455.44;10215656;28;20039;-80
2022/09/21 02:42:13;;;;;;;5.53;2.60;;;;;;;3.33;94.70;102463.78;10225048;29;20792;-80
2022/09/21 02:47:21;;;;;;;6.50;2.47;;;;;;;3.31;94.54;102462.75;10219729;28;20114;-80
2022/09/21 02:52:25;;;;;;;13.65;3.80;;;;;;;3.31;94.69;102461.88;10218757;29;20051;-81
2022/09/21 02:57:27;;;;;;;8.43;3.00;;;;;;;3.33;94.91;102468.06;10220568;28;20106;-81
2022/09/21 03:02:41;;;;;;;13.48;3.58;;;;;;;3.30;94.54;102463.56;10217492;29;20075;-80
2022/09/21 03:07:42;;;;;;;10.02;3.25;;;;;;;3.27;95.09;102467.59;10221854;28;20036;-81
2022/09/21 03:12:44;;;;;;;16.58;4.78;;;;;;;3.23;94.75;102465.56;10221996;28;20058;-80
2022/09/21 03:17:46;;;;;;;10.57;3.67;;;;;;;3.21;94.53;102470.63;10222726;28;20047;-80
2022/09/21 03:22:48;;;;;;;13.95;4.75;;;;;;;3.18;94.74;102468.75;10227339;28;20099;-80
2022/09/21 03:27:52;;;;;;;11.55;4.18;;;;;;;3.16;95.11;102472.88;10228530;28;20040;-81
2022/09/21 03:32:54;;;;;;;11.75;3.90;;;;;;;3.16;94.95;102479.75;10249872;28;20058;-81
2022/09/21 03:37:56;;;;;;;10.07;3.83;;;;;;;3.11;94.81;102481.13;10228192;29;20039;-81
2022/09/21 03:42:58;;;;;;;10.20;4.78;;;;;;;3.09;94.84;102474.91;10225135;28;20083;-81
2022/09/21 03:48:00;;;;;;;12.18;4.15;;;;;;;3.13;94.92;102474.34;10244786;28;20062;-81
2022/09/21 03:53:03;;;;;;;12.27;4.20;;;;;;;3.15;95.02;102478.88;10215075;28;20054;-81
2022/09/21 03:58:04;;;;;;;14.32;4.68;;;;;;;3.12;94.83;102488.06;10210403;29;20056;-81
2022/09/21 04:03:09;;;;;;;15.18;5.00;;;;;;;3.06;95.13;102487.63;10217261;29;20079;-82
2022/09/21 04:08:13;;;;;;;11.35;4.90;;;;;;;3.03;94.97;102487.41;10232942;28;20040;-82
2022/09/21 04:13:15;;;;;;;12.93;4.22;;;;;;;3.03;95.20;102482.22;10218194;28;20040;-82
2022/09/21 04:18:17;;;;;;;13.60;4.82;;;;;;;3.01;95.13;102479.50;10212911;29;20413;-82
2022/09/21 04:23:19;;;;;;;9.45;4.47;;;;;;;2.98;95.14;102474.13;10215954;28;20050;-82
2022/09/21 04:28:21;;;;;;;14.00;4.80;;;;;;;3.01;95.45;102485.59;10212318;28;20058;-82
2022/09/21 04:33:23;;;;;;;17.98;4.65;;;;;;;2.95;95.33;102484.25;10216955;28;20079;-82
2022/09/21 04:38:25;;;;;;;14.73;4.65;;;;;;;2.91;95.29;102488.28;10217021;28;20048;-82
2022/09/21 04:43:26;;;;;;;13.80;5.07;;;;;;;2.87;95.54;102485.31;10218043;28;20163;-82
2022/09/21 04:48:28;;;;;;;10.27;4.75;;;;;;;2.83;95.56;102486.78;10210554;28;20063;-81
2022/09/21 04:53:29;;;;;;;14.88;4.90;;;;;;;2.81;95.56;102493.56;10214995;29;20050;-82
2022/09/21 04:58:34;;;;;;;15.88;4.90;;;;;;;2.80;95.69;102494.31;10218916;29;20051;-82
2022/09/21 05:03:37;;;;;;;9.85;4.63;;;;;;;2.86;95.72;102505.13;10194434;29;20111;-82
2022/09/21 05:14:00;;;;;;;;;;;;;;;2.89;95.86;102500.19;10218386;28;20040;-81
2022/09/21 05:19:02;;;;;;;21.92;4.40;;;;;;;2.92;95.72;102500.44;10210268;29;19926;-82
2022/09/21 05:24:04;;;;;;;14.80;4.32;;;;;;;2.93;96.02;102510.00;10218037;28;20863;-82
2022/09/21 05:29:06;;;;;;;9.02;4.20;;;;;;;2.98;95.97;102511.22;10214724;28;20079;-82
2022/09/21 05:34:27;;;;;;;10.15;4.60;;;;;;;3.07;96.05;102521.38;10208938;29;20048;-82
2022/09/21 05:39:29;;;;;;;9.07;4.00;;;;;;;3.14;96.05;102517.59;10198037;29;20054;-82
2022/09/21 05:44:31;;;;;;;10.90;4.80;;;;;;;3.17;95.91;102523.00;10211942;29;20054;-82
2022/09/21 05:49:44;;;;;;;9.82;4.60;;;;;;;3.20;96.12;102523.22;10194081;28;20058;-82
2022/09/21 05:55:07;;;;;;;9.85;4.18;;;;;;;3.28;96.45;102527.25;10205180;29;20047;-82
2022/09/21 06:00:22;;;;;;;10.95;4.43;;;;;;;3.38;96.45;102530.53;10209290;29;20048;-82
2022/09/21 06:05:32;;;;;;;11.95;4.68;;;;;;;3.42;96.34;102528.28;10204483;29;20499;-82
2022/09/21 06:10:39;;;;;;;9.80;4.88;;;;;;;3.53;96.29;102534.28;10197963;29;20087;-82
2022/09/21 06:15:41;;;;;;;10.05;4.95;;;;;;;3.67;96.29;102543.94;10207811;29;20124;-82
2022/09/21 06:20:43;;;;;;;12.25;5.30;;;;;;;3.81;96.62;102544.94;10202732;29;20054;-82
2022/09/21 06:25:52;;;;;;;13.82;5.47;;;;;;;4.04;96.62;102553.50;10204124;29;20048;-81
2022/09/21 06:30:59;;;;;;;13.98;5.15;;;;;;;4.27;96.54;102549.97;10199853;29;20095;-83
2022/09/21 06:36:04;;;;;;;10.02;4.82;;;;;;;4.56;96.75;102553.69;10206191;28;20102;-82
2022/09/21 06:41:06;;;;;;;9.40;3.78;;;;;;;4.86;96.79;102548.84;10199163;29;20054;-82
2022/09/21 06:46:10;;;;;;;21.20;4.38;;;;;;;5.12;97.02;102553.22;10201865;28;20040;-82
2022/09/21 06:51:11;;;;;;;39.70;5.35;;;;;;;5.37;97.03;102550.53;10204222;29;20540;-82
2022/09/21 06:56:14;;;;;;;14.15;5.13;;;;;;;-147.53;100.00;57128.34;10216224;29;20496;-82
2022/09/21 07:01:15;;;;;;;33.42;5.10;;;;;;;-147.53;100.00;57128.34;10219242;28;20055;-82
2022/09/21 07:06:29;;;;;;;18.10;5.13;;;;;;;-147.53;100.00;57128.34;10213046;29;20424;-83
2022/09/21 07:11:33;;;;;;;11.35;5.60;;;;;;;-147.53;100.00;57128.34;10214890;29;20046;-84
2022/09/21 07:16:36;;;;;;;9.57;5.43;;;;;;;-147.53;100.00;57128.34;10218793;29;20051;-83
2022/09/21 07:21:40;;;;;;;10.80;5.80;;;;;;;8.53;96.76;102544.25;10208953;29;20108;-83
2022/09/21 07:26:49;;;;;;;13.20;7.32;;;;;;;10.30;96.44;102550.47;10209961;28;20516;-83
2022/09/21 07:31:53;;;;;;;14.98;8.23;;;;;;;11.87;94.31;102553.72;10215116;29;20047;-83
2022/09/21 07:36:54;;;;;;;15.65;8.93;;;;;;;13.54;89.74;102551.94;10216354;29;20051;-83
2022/09/21 07:41:59;;;;;;;15.48;8.85;;;;;;;14.83;83.89;102560.25;10212690;29;20567;-83
2022/09/21 07:47:02;;;;;;;14.40;7.85;;;;;;;15.15;79.63;102563.78;10219839;29;20459;-83
2022/09/21 07:52:10;;;;;;;19.73;8.02;;;;;;;14.34;77.05;102572.91;10216140;29;20048;-83
2022/09/21 08:02:33;;;;;;;8.45;4.60;;;;;;;13.71;77.53;102550.75;10220988;29;20062;-81
2022/09/21 08:07:35;;;;;;;9.02;4.20;;;;;;;14.00;77.02;102569.22;10198257;28;20079;-81
2022/09/21 08:12:36;;;;;;;10.50;4.30;;;;;;;14.20;76.61;102563.66;10217184;29;20333;-81
2022/09/21 08:17:38;;;;;;;8.02;3.97;;;;;;;14.63;76.46;102568.50;10219058;28;20040;-80
2022/09/21 08:22:40;;;;;;;12.05;4.57;;;;;;;14.44;75.44;102568.78;10215858;29;20084;-80
2022/09/21 08:27:41;;;;;;;11.07;4.90;;;;;;;15.26;75.44;102568.44;10211563;29;20131;-80
2022/09/21 08:32:43;;;;;;;8.63;2.92;;;;;;;14.72;74.28;102572.25;10219860;29;20047;-80
2022/09/21 08:37:53;;;;;;;10.40;3.43;;;;;;;14.89;73.79;102570.97;10215683;28;20048;-79
2022/09/21 08:43:11;;;;;;;9.15;3.13;;;;;;;15.54;74.25;102567.41;10216539;29;20128;-79
2022/09/21 08:48:26;;;;;;;12.18;3.10;;;;;;;15.76;72.70;102570.56;10186419;28;20056;-78
2022/09/21 08:53:37;;;;;;;7.38;2.70;;;;;;;16.21;71.93;102570.78;10203916;29;20089;-78
2022/09/21 08:58:40;;;;;;;8.73;3.00;;;;;;;16.55;71.18;102576.78;10213323;28;20044;-78
2022/09/21 09:03:47;;;;;;;7.65;2.50;;;;;;;16.82;70.85;102574.66;10176609;28;20052;-78
2022/09/21 09:08:52;;;;;;;8.30;2.80;;;;;;;17.24;69.75;102589.59;10179419;29;20052;-79
2022/09/21 09:14:27;;;;;;;8.10;2.60;;;;;;;16.81;68.27;102591.41;10183218;29;20058;-76
2022/09/21 09:19:40;;;;;;;7.25;1.65;;;;;;;17.10;67.77;102595.53;10205517;28;20066;-77
2022/09/21 09:24:58;;;;;;;10.18;2.38;;;;;;;17.62;66.95;102594.66;10187916;29;20051;-78
2022/09/21 09:30:18;;;;;;;8.32;1.63;;;;;;;17.27;66.13;102589.66;10187652;29;20054;-78
2022/09/21 09:35:48;;;;;;;7.38;1.70;;;;;;;17.77;65.36;102589.59;10187513;28;20043;-78
2022/09/21 09:40:56;;;;;;;8.95;1.70;;;;;;;17.65;64.49;102600.94;10192957;29;20056;-78
2022/09/21 09:46:08;;;;;;;7.17;1.40;;;;;;;18.16;63.11;102585.81;10169350;28;20055;-78
2022/09/21 09:51:13;;;;;;;4.20;1.02;;;;;;;17.54;62.34;102585.72;10168101;29;20040;-78
2022/09/21 09:56:17;;;;;;;5.90;0.77;;;;;;;17.23;61.86;102594.00;10180023;29;20054;-77
2022/09/21 10:01:40;;;;;;;8.40;1.10;;;;;;;17.72;62.65;102588.66;10168172;28;20048;-77
2022/09/21 10:06:44;;;;;;;10.02;1.10;;;;;;;17.67;62.36;102588.59;10174193;29;20048;-78
2022/09/21 10:11:48;;;;;;;6.53;1.17;;;;;;;17.60;61.47;102593.75;10179547;29;20067;-78
2022/09/21 10:16:52;;;;;;;7.18;0.75;;;;;;;17.77;61.45;102586.97;10177746;29;20063;-78
2022/09/21 10:21:57;;;;;;;5.00;1.45;;;;;;;18.27;60.43;102585.06;10196377;29;20071;-78
2022/09/21 10:27:10;;;;;;;4.90;1.10;;;;;;;18.50;60.62;102586.28;10188029;29;20598;-77
2022/09/21 10:32:12;;;;;;;6.60;1.17;;;;;;;18.65;59.10;102590.00;10185338;29;20048;-77
2022/09/21 10:37:33;;;;;;;10.07;1.83;;;;;;;18.28;57.82;102586.84;10187198;29;20082;-77
2022/09/21 10:42:41;;;;;;;3.70;1.00;;;;;;;18.29;57.37;102578.03;10189834;29;20051;-78
2022/09/21 10:47:49;;;;;;;6.95;0.95;;;;;;;17.64;55.77;102577.94;10203509;28;20352;-78
2022/09/21 10:52:57;;;;;;;8.18;1.20;;;;;;;17.98;56.77;102580.25;10204341;28;20040;-78
2022/09/21 10:57:59;;;;;;;4.77;1.40;;;;;;;16.96;56.89;102573.19;10209233;28;20048;-77
2022/09/21 11:03:24;;;;;;;6.05;1.33;;;;;;;15.91;59.14;102573.59;10204359;29;20064;-77
2022/09/21 11:08:57;;;;;;;9.07;1.13;;;;;;;15.43;59.38;102576.78;10204997;28;20055;-77
2022/09/21 11:14:03;;;;;;;4.88;0.90;;;;;;;15.34;59.70;102573.06;10206359;29;20048;-78
2022/09/21 11:19:29;;;;;;;2.47;0.75;;;;;;;15.73;60.32;102574.94;10204550;28;20052;-78
2022/09/21 11:24:41;;;;;;;7.70;0.93;;;;;;;16.17;59.31;102575.94;10183788;29;20052;-77
2022/09/21 11:30:00;;;;;;;7.45;0.82;;;;;;;16.18;59.50;102567.16;10205040;29;20043;-78
2022/09/21 11:35:04;;;;;;;9.13;1.67;;;;;;;16.85;58.99;102562.38;10202622;29;20048;-79
2022/09/21 11:40:15;;;;;;;7.07;1.30;;;;;;;17.47;58.06;102564.44;10223752;29;20051;-78
2022/09/21 11:45:31;;;;;;;5.45;1.42;;;;;;;17.20;57.03;102554.22;10217437;29;20059;-78
2022/09/21 11:50:46;;;;;;;3.75;0.75;;;;;;;17.52;57.06;102547.69;10211596;29;20047;-77
2022/09/21 11:55:51;;;;;;;5.10;0.75;;;;;;;17.77;55.82;102551.63;10211392;29;20071;-78
2022/09/21 12:01:17;;;;;;;11.07;1.20;;;;;;;17.97;55.19;102544.91;10198953;28;20051;-78
2022/09/21 12:06:40;;;;;;;4.18;0.90;;;;;;;18.04;54.54;102543.22;10206305;29;20051;-77
2022/09/21 12:11:53;;;;;;;16.17;1.05;;;;;;;17.74;53.55;102544.53;10197019;29;20048;-78
2022/09/21 12:17:08;;;;;;;6.75;1.13;;;;;;;17.73;53.45;102542.75;10210906;29;20043;-78
2022/09/21 12:22:20;;;;;;;4.22;0.85;;;;;;;17.62;53.49;102547.00;10198833;29;20055;-78
2022/09/21 12:27:31;;;;;;;5.00;1.00;;;;;;;17.67;53.59;102542.66;10199947;29;20086;-78
2022/09/21 12:32:32;;;;;;;5.72;1.55;;;;;;;17.55;54.00;102537.16;10210579;29;20040;-78
2022/09/21 12:37:41;;;;;;;3.25;0.80;;;;;;;17.17;53.70;102540.06;10205704;28;20102;-77
2022/09/21 12:42:48;;;;;;;11.70;2.17;;;;;;;16.74;54.37;102534.84;10210716;28;20054;-78
2022/09/21 12:47:57;;;;;;;6.53;0.90;;;;;;;17.22;55.27;102530.44;10208580;28;20084;-78
2022/09/21 12:53:00;;;;;;;9.20;1.10;;;;;;;17.86;54.10;102519.97;10203301;28;20578;-78
2022/09/21 12:58:20;;;;;;;4.78;1.02;;;;;;;17.85;53.37;102518.22;10196679;28;20071;-77
2022/09/21 13:03:43;;;;;;;5.65;0.77;;;;;;;17.72;52.16;102514.47;10206513;28;20043;-78
2022/09/21 13:08:47;;;;;;;5.07;1.83;;;;;;;18.08;51.08;102513.25;10205075;29;20075;-78
2022/09/21 13:13:58;;;;;;;3.95;0.85;;;;;;;18.01;50.84;102506.09;10208462;28;20059;-77
2022/09/21 13:19:03;;;;;;;4.40;0.70;;;;;;;17.71;51.21;102509.16;10207752;29;20523;-78
2022/09/21 13:24:23;;;;;;;5.72;0.93;;;;;;;17.40;50.94;102509.56;10198458;29;20636;-78
2022/09/21 13:29:31;;;;;;;4.78;0.90;;;;;;;17.37;52.03;102503.31;10202682;28;20059;-78
2022/09/21 13:34:45;;;;;;;9.03;2.03;;;;;;;17.77;52.10;102494.22;10213706;29;20055;-83
2022/09/21 13:39:54;;;;;;;4.97;1.30;;;;;;;18.13;51.02;102498.28;10229536;28;20052;-82
2022/09/21 13:44:58;;;;;;;3.70;0.82;;;;;;;17.92;50.03;102488.28;10224692;29;20044;-82
2022/09/21 13:50:09;;;;;;;5.38;1.00;;;;;;;17.81;50.35;102485.47;10236100;28;20075;-82
2022/09/21 13:55:29;;;;;;;6.70;0.88;;;;;;;17.87;50.23;102486.44;10245413;28;20035;-82
2022/09/21 14:00:50;;;;;;;5.00;0.80;;;;;;;17.59;50.22;102478.06;10244428;29;20118;-81
2022/09/21 14:06:10;;;;;;;3.60;0.70;;;;;;;17.75;50.04;102482.72;10211213;29;20058;-80
2022/09/21 14:11:38;;;;;;;5.68;1.27;;;;;;;17.58;49.65;102484.22;10207321;29;20043;-80
2022/09/21 14:16:44;;;;;;;1.90;0.77;;;;;;;17.43;49.52;102480.50;10215211;29;20057;-78
2022/09/21 14:22:07;;;;;;;4.70;0.70;;;;;;;17.32;49.14;102474.13;10209283;29;20039;-79
2022/09/21 14:27:24;;;;;;;6.40;1.10;;;;;;;17.43;48.95;102472.56;10205651;28;20235;-80
2022/09/21 14:32:32;;;;;;;3.97;0.90;;;;;;;17.60;48.86;102464.84;10201795;29;20047;-79
2022/09/21 14:37:41;;;;;;;4.40;0.65;;;;;;;17.54;47.32;102474.47;10201703;28;20055;-80
2022/09/21 14:42:45;;;;;;;7.43;0.70;;;;;;;17.65;48.42;102463.19;10199932;28;20515;-77
2022/09/21 14:48:04;;;;;;;4.35;0.77;;;;;;;17.46;47.82;102466.44;10182492;28;20085;-79
2022/09/21 14:53:09;;;;;;;4.95;0.82;;;;;;;17.29;47.77;102453.81;10201041;28;20047;-79
2022/09/21 14:58:30;;;;;;;3.10;0.52;;;;;;;17.43;48.35;102451.38;10188810;28;20627;-78
2022/09/21 15:03:58;;;;;;;6.45;0.88;;;;;;;17.74;48.19;102446.50;10197954;28;20084;-78
2022/09/21 15:15:04;;;;;;;3.00;0.45;;;;;;;17.50;48.26;102439.09;10182692;29;20122;-79
2022/09/21 15:20:28;;;;;;;5.97;0.70;;;;;;;17.49;48.03;102446.16;10199403;29;20056;-79
2022/09/21 15:25:32;;;;;;;3.45;0.88;;;;;;;17.30;47.86;102439.69;10210978;29;20321;-80
2022/09/21 15:30:44;;;;;;;2.80;1.00;;;;;;;16.88;48.99;102439.88;10195842;29;20048;-80
2022/09/21 15:35:46;;;;;;;3.35;0.60;;;;;;;16.82;49.16;102439.75;10207142;28;20415;-79
2022/09/21 15:40:49;;;;;;;4.65;0.90;;;;;;;16.74;49.23;102437.84;10195658;29;20063;-79
2022/09/21 15:46:06;;;;;;;3.17;0.60;;;;;;;16.72;50.09;102438.69;10186972;29;20058;-80
2022/09/21 15:51:30;;;;;;;6.00;0.70;;;;;;;16.55;49.36;102435.75;10210044;29;20143;-81
2022/09/21 15:56:39;;;;;;;5.03;0.80;;;;;;;16.34;49.20;102430.94;10220790;29;20472;-80
2022/09/21 16:01:46;;;;;;;5.47;1.00;;;;;;;16.21;49.49;102429.78;10204266;29;20102;-80
2022/09/21 16:07:05;;;;;;;4.25;0.88;;;;;;;16.16;49.99;102426.19;10192890;29;20054;-80
2022/09/21 16:12:41;;;;;;;3.67;1.23;;;;;;;15.97;50.83;102423.13;10208592;29;20054;-80
2022/09/21 16:18:01;;;;;;;3.95;0.80;;;;;;;15.57;52.05;102430.19;10190679;28;20054;-80
2022/09/21 16:23:10;;;;;;;6.53;1.10;;;;;;;15.48;53.37;102424.72;10204420;28;20066;-80
2022/09/21 16:28:17;;;;;;;3.57;0.70;;;;;;;15.30;53.88;102428.69;10205718;28;20102;-79
2022/09/21 16:33:35;;;;;;;6.30;1.13;;;;;;;15.17;54.31;102431.88;10193865;29;20054;-80
2022/09/21 16:38:37;;;;;;;4.35;0.88;;;;;;;14.97;54.72;102424.38;10201161;29;20054;-79
2022/09/21 16:43:42;;;;;;;5.78;1.10;;;;;;;14.83;55.71;102431.03;10185922;29;20056;-79
2022/09/21 16:48:44;;;;;;;3.38;0.88;;;;;;;14.62;57.06;102432.28;10213318;29;20047;-79
2022/09/21 16:53:45;;;;;;;5.35;1.17;;;;;;;14.46;58.49;102427.41;10212487;29;20076;-78
2022/09/21 16:58:47;;;;;;;5.97;1.83;;;;;;;14.16;60.05;102425.69;10209867;29;20040;-79
2022/09/21 17:03:48;;;;;;;8.73;2.22;;;;;;;13.88;61.66;102421.38;10214465;28;20059;-78
2022/09/21 17:08:50;;;;;;;7.60;1.65;;;;;;;13.52;62.89;102422.03;10205966;29;20050;-79
2022/09/21 17:13:52;;;;;;;8.30;2.53;;;;;;;13.25;64.28;102423.81;10215969;29;20040;-79
2022/09/21 17:18:53;;;;;;;10.82;2.88;;;;;;;13.01;65.23;102420.38;10206698;29;20072;-79
2022/09/21 17:23:55;;;;;;;10.07;2.67;;;;;;;12.71;66.33;102418.50;10209714;29;20051;-79
2022/09/21 17:28:56;;;;;;;8.38;2.40;;;;;;;12.49;67.53;102416.84;10202168;29;20043;-79
2022/09/21 17:34:08;;;;;;;13.65;3.35;;;;;;;12.19;68.45;102413.22;10212928;28;20522;-78
2022/09/21 17:39:12;;;;;;;11.70;4.20;;;;;;;11.95;69.37;102420.16;10207411;29;20043;-79
2022/09/21 17:44:16;;;;;;;11.95;5.82;;;;;;;11.72;70.20;102412.28;10211346;28;20078;-79
2022/09/21 17:49:19;;;;;;;13.15;5.68;;;;;;;11.52;71.13;102418.50;10193596;29;20047;-79
2022/09/21 17:54:20;;;;;;;12.18;4.80;;;;;;;11.30;71.70;102422.88;10208284;29;20503;-79
2022/09/21 17:59:35;;;;;;;15.50;5.85;;;;;;;11.10;72.27;102422.97;10214083;28;20073;-79
2022/09/21 18:04:37;;;;;;;13.07;6.05;;;;;;;10.91;73.20;102423.03;10216113;29;20043;-79
2022/09/21 18:09:39;;;;;;;11.88;5.32;;;;;;;10.74;73.85;102417.09;10209668;29;20047;-79
2022/09/21 18:15:15;;;;;;;11.70;4.70;;;;;;;10.54;74.57;102424.09;10214080;28;20094;-79
2022/09/21 18:20:30;;;;;;;10.68;3.85;;;;;;;10.34;75.22;102420.59;10213020;29;20059;-79
2022/09/21 18:25:34;;;;;;;9.45;3.20;;;;;;;10.26;75.51;102423.72;10210257;29;20050;-79
2022/09/21 18:30:47;;;;;;;13.10;4.18;;;;;;;10.11;76.34;102415.19;10205290;28;20071;-79
2022/09/21 18:35:56;;;;;;;25.58;9.32;;;;;;;10.01;77.00;102428.69;10210459;28;20056;-79
2022/09/21 18:41:10;;;;;;;26.83;11.45;;;;;;;9.87;77.56;102428.94;10198700;29;20047;-79
2022/09/21 18:46:17;;;;;;;24.15;11.98;;;;;;;9.69;78.16;102423.75;10198475;29;20052;-80
2022/09/21 18:51:26;;;;;;;26.17;12.05;;;;;;;9.53;78.50;102429.09;10206400;29;20067;-79
2022/09/21 18:56:33;;;;;;;23.30;10.40;;;;;;;9.44;79.05;102428.66;10221012;29;20055;-79
2022/09/21 19:01:35;;;;;;;24.77;10.80;;;;;;;9.33;79.57;102425.53;10219706;28;20138;-78
2022/09/21 19:07:33;;;;;;;19.60;8.55;;;;;;;9.14;79.94;102426.34;10220713;29;20055;-79
2022/09/21 19:13:14;;;;;;;13.95;8.07;;;;;;;9.01;80.41;102425.75;10204767;28;20040;-79
2022/09/21 19:18:22;;;;;;;13.98;5.25;;;;;;;8.92;80.85;102422.66;10214928;28;20053;-79
2022/09/21 19:23:44;;;;;;;11.13;5.03;;;;;;;8.81;81.28;102423.84;10218510;28;20048;-79
2022/09/21 19:28:59;;;;;;;8.20;4.00;;;;;;;8.66;81.63;102427.47;10215536;29;20035;-79
2022/09/21 19:34:13;;;;;;;12.38;3.95;;;;;;;8.52;81.95;102433.69;10207854;29;20751;-79
2022/09/21 19:39:15;;;;;;;10.60;4.03;;;;;;;8.46;82.19;102433.38;10220696;28;20044;-79
2022/09/21 19:44:35;;;;;;;10.32;4.57;;;;;;;8.35;82.46;102424.97;10219268;29;20047;-79
2022/09/21 19:50:14;;;;;;;21.48;8.35;;;;;;;8.23;82.61;102440.88;10213700;28;20218;-78
2022/09/21 20:00:42;;;;;;;15.27;6.22;;;;;;;8.07;83.32;102443.47;10222203;29;20080;-78
2022/09/21 20:06:24;;;;;;;11.57;5.28;;;;;;;7.99;83.59;102443.06;10221549;29;20047;-79
2022/09/21 20:11:49;;;;;;;11.48;5.70;;;;;;;7.92;83.92;102439.22;10211019;29;20060;-79
2022/09/21 20:16:55;;;;;;;13.85;4.15;;;;;;;7.82;84.13;102442.16;10217111;29;20115;-79
2022/09/21 20:22:03;;;;;;;14.30;5.32;;;;;;;7.74;84.17;102448.63;10218419;29;20044;-79
2022/09/21 20:27:35;;;;;;;13.27;4.30;;;;;;;7.61;84.53;102453.19;10218055;29;20048;-79
2022/09/21 20:32:39;;;;;;;11.60;5.30;;;;;;;7.52;84.83;102443.94;10220184;29;20055;-79
2022/09/21 20:37:41;;;;;;;15.15;7.68;;;;;;;7.42;85.30;102439.94;10212188;28;20132;-79
2022/09/21 20:42:43;;;;;;;33.55;15.68;;;;;;;7.32;85.03;102443.72;10220149;29;20059;-79
2022/09/21 20:47:48;;;;;;;52.13;24.33;;;;;;;7.25;85.40;102445.09;10219355;28;20650;-78
2022/09/21 20:52:51;;;;;;;42.80;20.30;;;;;;;7.20;85.52;102443.00;10219998;28;20048;-79
2022/09/21 20:57:52;;;;;;;36.70;18.55;;;;;;;7.05;85.60;102446.50;10211708;29;20044;-79
2022/09/21 21:03:00;;;;;;;27.00;12.18;;;;;;;7.00;85.76;102447.09;10218712;28;20047;-79
2022/09/21 21:08:03;;;;;;;25.05;11.43;;;;;;;6.95;85.76;102448.50;10208183;28;20148;-78
2022/09/21 21:13:05;;;;;;;19.58;10.10;;;;;;;6.90;85.82;102448.25;10219333;28;20044;-79
2022/09/21 21:18:09;;;;;;;20.50;9.65;;;;;;;6.85;86.16;102447.97;10218990;28;20495;-79
2022/09/21 21:23:11;;;;;;;16.48;8.88;;;;;;;6.81;86.34;102447.69;10215543;29;20166;-79
2022/09/21 21:28:13;;;;;;;14.07;7.93;;;;;;;6.74;86.43;102441.25;10214578;29;20071;-78
2022/09/21 21:33:15;;;;;;;17.15;8.32;;;;;;;6.67;86.54;102449.50;10216954;29;20047;-79
2022/09/21 21:38:17;;;;;;;16.98;7.55;;;;;;;6.63;86.76;102443.19;10217411;28;20059;-79
2022/09/21 21:43:18;;;;;;;18.00;7.65;;;;;;;6.53;86.93;102446.97;10214429;28;20484;-79
2022/09/21 21:48:20;;;;;;;16.83;8.35;;;;;;;6.47;87.15;102445.66;10208826;29;20048;-81
2022/09/21 21:53:22;;;;;;;19.90;10.38;;;;;;;6.41;87.26;102438.41;10209276;29;20052;-80
2022/09/21 21:58:26;;;;;;;20.58;10.30;;;;;;;6.30;87.50;102442.06;10208367;29;20052;-80
2022/09/21 22:03:28;;;;;;;25.35;11.30;;;;;;;6.23;87.37;102442.47;10213453;29;20079;-80
2022/09/21 22:08:31;;;;;;;21.25;11.50;;;;;;;6.17;87.45;102432.59;10211780;29;20073;-80
2022/09/21 22:13:35;;;;;;;24.95;11.02;;;;;;;6.14;87.70;102438.53;10212135;29;20683;-80
2022/09/21 22:18:38;;;;;;;21.63;10.38;;;;;;;6.08;87.91;102443.34;10211772;29;20516;-79
2022/09/21 22:23:40;;;;;;;19.90;10.23;;;;;;;5.99;87.81;102440.16;10213856;29;20083;-80
2022/09/21 22:28:44;;;;;;;18.48;8.70;;;;;;;5.93;87.96;102434.53;10215918;29;20559;-78
2022/09/21 22:33:47;;;;;;;17.80;7.93;;;;;;;5.88;88.12;102438.56;10225252;29;20058;-81
2022/09/21 22:38:49;;;;;;;16.10;7.47;;;;;;;5.83;88.18;102439.19;10227065;28;20051;-79
2022/09/21 22:43:53;;;;;;;15.00;7.78;;;;;;;5.81;88.19;102440.78;10226768;28;20065;-79
2022/09/21 22:48:55;;;;;;;21.67;8.50;;;;;;;5.74;88.30;102436.00;10221361;29;20058;-79
2022/09/21 22:53:57;;;;;;;19.33;8.77;;;;;;;5.70;88.24;102439.19;10222127;28;20530;-79
2022/09/21 22:59:00;;;;;;;21.10;9.15;;;;;;;5.63;88.54;102435.31;10220174;29;20059;-79
2022/09/21 23:04:07;;;;;;;23.27;9.40;;;;;;;5.59;88.43;102428.13;10222679;29;20043;-79
2022/09/21 23:09:14;;;;;;;23.85;8.07;;;;;;;5.57;88.37;102426.22;10223946;28;20044;-79
2022/09/21 23:14:16;;;;;;;20.48;8.40;;;;;;;5.50;88.56;102430.16;10211571;29;20048;-79
2022/09/21 23:19:18;;;;;;;20.67;8.75;;;;;;;5.42;88.59;102423.53;10218026;28;20055;-78
2022/09/21 23:24:19;;;;;;;19.48;7.75;;;;;;;5.40;88.79;102425.16;10219316;28;20048;-79
2022/09/21 23:29:21;;;;;;;20.15;7.70;;;;;;;5.38;88.77;102424.16;10219450;29;20040;-79
2022/09/21 23:34:23;;;;;;;21.02;6.88;;;;;;;5.32;88.83;102412.56;10230034;29;20059;-79
2022/09/21 23:39:25;;;;;;;18.27;7.07;;;;;;;5.28;88.87;102425.25;10241165;28;20055;-80
2022/09/21 23:44:27;;;;;;;18.83;7.50;;;;;;;5.25;89.02;102425.06;10217447;29;20051;-80
2022/09/21 23:49:28;;;;;;;14.57;6.68;;;;;;;5.22;89.18;102424.88;10214998;28;20044;-82
2022/09/21 23:54:30;;;;;;;16.60;6.70;;;;;;;5.16;88.98;107583.97;10202546;29;20064;-80
2022/09/21 23:59:31;;;;;;;15.30;7.22;;;;;;;5.11;89.12;102417.25;10208115;28;20043;-81
